createdAt,value
2022-12-09T00:01:39.047Z,14.50
2022-12-09T00:04:06.425Z,14.80
2022-12-09T00:06:33.677Z,14.60
2022-12-09T00:09:01.165Z,13.20
2022-12-09T00:11:28.444Z,13.97
2022-12-09T00:13:56.304Z,15.50
2022-12-09T00:16:26.000Z,14.60
2022-12-09T00:18:53.237Z,13.07
2022-12-09T00:21:21.721Z,14.77
2022-12-09T00:23:49.535Z,15.97
2022-12-09T00:26:20.592Z,16.17
2022-12-09T00:28:48.931Z,17.40
2022-12-09T00:31:17.063Z,16.30
2022-12-09T00:33:47.132Z,18.77
2022-12-09T00:36:15.057Z,16.97
2022-12-09T00:38:43.635Z,17.70
2022-12-09T00:41:11.666Z,16.00
2022-12-09T00:43:39.012Z,16.33
2022-12-09T00:46:06.482Z,16.50
2022-12-09T00:48:33.759Z,15.80
2022-12-09T00:51:02.280Z,15.63
2022-12-09T00:53:29.543Z,16.37
2022-12-09T00:55:56.639Z,14.70
2022-12-09T00:58:24.009Z,14.40
2022-12-09T01:00:51.416Z,15.10
2022-12-09T01:03:18.908Z,15.57
2022-12-09T01:05:46.464Z,15.37
2022-12-09T01:08:16.242Z,14.07
2022-12-09T01:10:44.252Z,13.70
2022-12-09T01:13:12.035Z,14.43
2022-12-09T01:15:39.555Z,16.00
2022-12-09T01:18:07.343Z,13.40
2022-12-09T01:20:35.032Z,14.70
2022-12-09T01:23:02.709Z,15.33
2022-12-09T01:25:31.210Z,15.13
2022-12-09T01:27:59.103Z,14.40
2022-12-09T01:30:26.512Z,14.40
2022-12-09T01:32:53.939Z,15.10
2022-12-09T01:35:21.240Z,14.40
2022-12-09T01:37:49.614Z,14.27
2022-12-09T01:40:17.719Z,15.33
2022-12-09T01:42:46.869Z,14.40
2022-12-09T01:45:32.757Z,13.67
2022-12-09T01:48:02.479Z,14.40
2022-12-09T01:50:30.201Z,15.80
2022-12-09T01:52:57.903Z,13.90
2022-12-09T01:55:25.872Z,13.70
2022-12-09T01:57:54.665Z,13.87
2022-12-09T02:00:21.924Z,12.40
2022-12-09T02:02:50.878Z,13.03
2022-12-09T02:05:20.978Z,13.60
2022-12-09T02:07:54.383Z,13.60
2022-12-09T02:10:21.962Z,13.30
2022-12-09T02:13:08.402Z,13.70
2022-12-09T02:15:38.184Z,11.80
2022-12-09T02:18:08.392Z,11.97
2022-12-09T02:20:37.377Z,11.93
2022-12-09T02:23:08.229Z,10.90
2022-12-09T02:25:39.390Z,13.13
2022-12-09T02:28:25.393Z,10.43
2022-12-09T02:30:59.178Z,11.70
2022-12-09T02:33:39.234Z,11.73
2022-12-09T02:36:13.348Z,11.10
2022-12-09T02:38:42.608Z,12.23
2022-12-09T02:41:13.285Z,13.30
2022-12-09T02:43:49.889Z,10.83
2022-12-09T02:46:21.860Z,13.10
2022-12-09T02:48:52.371Z,10.33
2022-12-09T02:51:21.918Z,12.53
2022-12-09T02:53:51.595Z,12.50
2022-12-09T02:56:19.325Z,11.80
2022-12-09T02:58:46.433Z,12.37
2022-12-09T03:01:21.913Z,13.47
2022-12-09T03:03:50.798Z,11.83
2022-12-09T03:06:19.190Z,12.83
2022-12-09T03:08:51.612Z,12.47
2022-12-09T03:11:19.613Z,12.20
2022-12-09T03:13:51.788Z,12.70
2022-12-09T03:16:23.472Z,12.87
2022-12-09T03:18:55.493Z,14.20
2022-12-09T03:21:25.556Z,13.03
2022-12-09T03:23:54.994Z,13.90
2022-12-09T03:26:22.841Z,11.83
2022-12-09T03:28:50.973Z,12.60
2022-12-09T03:31:19.870Z,13.10
2022-12-09T03:33:48.148Z,14.10
2022-12-09T03:36:15.861Z,14.17
2022-12-09T03:38:44.499Z,12.87
2022-12-09T03:41:17.457Z,12.37
2022-12-09T03:43:47.599Z,12.93
2022-12-09T03:46:14.724Z,11.73
2022-12-09T03:48:42.172Z,14.53
2022-12-09T03:51:11.729Z,12.40
2022-12-09T03:53:43.061Z,12.63
2022-12-09T03:56:12.972Z,15.03
2022-12-09T03:58:43.440Z,14.23
2022-12-09T04:01:10.679Z,13.90
2022-12-09T04:03:38.913Z,14.93
2022-12-09T04:06:06.376Z,15.00
2022-12-09T04:08:33.802Z,12.80
2022-12-09T04:11:01.518Z,14.43
2022-12-09T04:13:28.800Z,15.83
2022-12-09T04:15:57.475Z,13.60
2022-12-09T04:18:24.702Z,13.13
2022-12-09T04:20:51.927Z,14.47
2022-12-09T04:23:19.025Z,13.80
2022-12-09T04:25:46.213Z,13.90
2022-12-09T04:28:13.352Z,14.63
2022-12-09T04:30:44.713Z,12.97
2022-12-09T04:33:13.328Z,14.07
2022-12-09T04:35:40.769Z,13.27
2022-12-09T04:38:07.901Z,12.33
2022-12-09T04:40:35.424Z,13.33
2022-12-09T04:43:02.634Z,12.33
2022-12-09T04:45:29.889Z,12.00
2022-12-09T04:47:58.519Z,12.30
2022-12-09T04:50:27.298Z,12.13
2022-12-09T04:52:54.579Z,13.60
2022-12-09T04:55:21.893Z,15.77
2022-12-09T04:57:49.341Z,14.27
2022-12-09T05:00:17.452Z,12.33
2022-12-09T05:02:44.864Z,14.13
2022-12-09T05:05:12.323Z,14.00
2022-12-09T05:07:41.377Z,12.37
2022-12-09T05:10:09.316Z,13.03
2022-12-09T05:12:37.182Z,13.30
2022-12-09T05:15:04.704Z,13.00
2022-12-09T05:17:31.888Z,12.73
2022-12-09T05:19:59.228Z,13.40
2022-12-09T05:22:26.630Z,12.50
2022-12-09T05:24:55.373Z,16.00
2022-12-09T05:27:22.925Z,14.47
2022-12-09T05:29:50.445Z,14.10
2022-12-09T05:32:17.645Z,15.63
2022-12-09T05:34:45.373Z,14.47
2022-12-09T05:37:14.055Z,12.60
2022-12-09T05:39:41.379Z,13.20
2022-12-09T05:42:09.945Z,16.07
2022-12-09T05:44:37.401Z,14.00
2022-12-09T05:47:04.803Z,13.40
2022-12-09T05:49:32.432Z,14.00
2022-12-09T05:52:00.329Z,15.77
2022-12-09T05:54:27.520Z,15.30
2022-12-09T05:56:55.345Z,14.63
2022-12-09T05:59:24.285Z,13.20
2022-12-09T06:01:51.727Z,15.03
2022-12-09T06:04:18.981Z,15.47
2022-12-09T06:06:46.997Z,16.17
2022-12-09T06:09:14.665Z,13.97
2022-12-09T06:11:41.948Z,15.50
2022-12-09T06:14:09.619Z,15.93
2022-12-09T06:16:38.929Z,15.30
2022-12-09T06:19:06.715Z,18.60
2022-12-09T06:21:34.133Z,17.50
2022-12-09T06:24:01.382Z,15.73
2022-12-09T06:26:29.911Z,16.90
2022-12-09T06:28:57.609Z,17.30
2022-12-09T06:31:25.185Z,18.70
2022-12-09T06:33:56.318Z,17.00
2022-12-09T06:36:24.398Z,18.63
2022-12-09T06:38:52.024Z,18.10
2022-12-09T06:41:19.359Z,18.07
2022-12-09T06:43:46.840Z,18.20
2022-12-09T06:46:15.406Z,19.27
2022-12-09T06:48:43.718Z,17.47
2022-12-09T06:51:12.827Z,18.50
2022-12-09T06:53:40.306Z,18.50
2022-12-09T06:56:12.231Z,18.27
2022-12-09T06:58:40.841Z,19.27
2022-12-09T07:01:09.543Z,18.20
2022-12-09T07:03:37.983Z,17.30
2022-12-09T07:06:06.240Z,19.07
2022-12-09T07:08:35.154Z,20.00
2022-12-09T07:11:02.906Z,20.03
2022-12-09T07:13:30.649Z,19.30
2022-12-09T07:15:58.324Z,19.50
2022-12-09T07:18:25.905Z,18.93
2022-12-09T07:20:53.555Z,18.50
2022-12-09T07:23:20.751Z,18.00
2022-12-09T07:25:57.151Z,19.53
2022-12-09T07:28:24.978Z,19.70
2022-12-09T07:30:52.500Z,19.73
2022-12-09T07:33:19.747Z,20.30
2022-12-09T07:35:47.308Z,18.87
2022-12-09T07:38:15.232Z,21.30
2022-12-09T07:40:42.403Z,21.10
2022-12-09T07:43:11.188Z,18.60
2022-12-09T07:45:38.813Z,20.60
2022-12-09T07:48:06.439Z,20.93
2022-12-09T07:50:33.874Z,20.63
2022-12-09T07:53:01.331Z,19.00
2022-12-09T07:55:28.811Z,20.17
2022-12-09T07:57:56.451Z,20.90
2022-12-09T08:00:25.186Z,19.63
2022-12-09T08:02:53.079Z,22.07
2022-12-09T08:05:20.766Z,20.97
2022-12-09T08:07:48.557Z,23.73
2022-12-09T08:10:15.900Z,21.33
2022-12-09T08:12:43.738Z,22.13
2022-12-09T08:15:11.666Z,22.40
2022-12-09T08:17:40.589Z,22.10
2022-12-09T08:20:09.058Z,21.30
2022-12-09T08:22:37.077Z,21.90
2022-12-09T08:25:04.811Z,22.80
2022-12-09T08:27:32.468Z,25.20
2022-12-09T08:29:59.952Z,22.90
2022-12-09T08:32:27.288Z,24.10
2022-12-09T08:34:56.004Z,22.60
2022-12-09T08:37:23.575Z,23.17
2022-12-09T08:39:50.894Z,26.20
2022-12-09T08:42:18.349Z,24.17
2022-12-09T08:44:45.891Z,25.10
2022-12-09T08:47:13.202Z,23.60
2022-12-09T08:49:40.510Z,23.37
2022-12-09T08:52:09.553Z,23.30
2022-12-09T08:54:37.091Z,24.90
2022-12-09T08:57:04.583Z,24.67
2022-12-09T08:59:31.716Z,24.10
2022-12-09T09:01:59.333Z,24.97
2022-12-09T09:04:27.063Z,24.87
2022-12-09T09:06:54.696Z,24.60
2022-12-09T09:09:23.677Z,23.13
2022-12-09T09:11:51.109Z,24.20
2022-12-09T09:14:18.457Z,23.70
2022-12-09T09:16:46.309Z,24.90
2022-12-09T09:19:15.828Z,25.37
2022-12-09T09:21:43.193Z,23.33
2022-12-09T09:24:11.366Z,21.50
2022-12-09T09:26:41.767Z,23.50
2022-12-09T09:29:09.806Z,22.97
2022-12-09T09:31:37.405Z,20.70
2022-12-09T09:34:05.065Z,21.27
2022-12-09T09:36:33.367Z,22.87
2022-12-09T09:39:00.901Z,19.90
2022-12-09T09:41:32.679Z,22.37
2022-12-09T09:44:02.009Z,20.93
2022-12-09T09:46:35.023Z,21.60
2022-12-09T09:49:03.202Z,20.87
2022-12-09T09:51:32.999Z,22.33
2022-12-09T09:54:06.671Z,20.57
2022-12-09T09:56:37.588Z,20.60
2022-12-09T09:59:11.346Z,19.97
2022-12-09T10:01:39.452Z,20.00
2022-12-09T10:04:13.296Z,19.93
2022-12-09T10:06:45.819Z,20.27
2022-12-09T10:09:16.936Z,20.93
2022-12-09T10:11:55.215Z,22.70
2022-12-09T10:14:31.701Z,19.87
2022-12-09T10:17:04.533Z,20.80
2022-12-09T10:19:33.716Z,20.90
2022-12-09T10:22:06.570Z,18.90
2022-12-09T10:24:39.996Z,18.20
2022-12-09T10:27:13.310Z,20.30
2022-12-09T10:29:47.078Z,18.53
2022-12-09T10:32:16.185Z,18.00
2022-12-09T10:34:43.456Z,16.60
2022-12-09T10:37:19.782Z,17.50
2022-12-09T10:39:47.309Z,17.67
2022-12-09T10:42:15.386Z,17.63
2022-12-09T10:44:44.447Z,17.77
2022-12-09T10:47:22.267Z,16.67
2022-12-09T10:49:51.739Z,13.80
2022-12-09T10:52:22.269Z,13.63
2022-12-09T10:54:50.162Z,15.50
2022-12-09T10:57:25.209Z,15.73
2022-12-09T11:00:06.701Z,16.87
2022-12-09T11:02:35.251Z,15.80
2022-12-09T11:05:23.108Z,17.73
2022-12-09T11:07:51.625Z,19.17
2022-12-09T11:10:21.822Z,14.20
2022-12-09T11:12:51.975Z,17.60
2022-12-09T11:15:26.360Z,16.03
2022-12-09T11:17:58.601Z,13.27
2022-12-09T11:20:27.440Z,13.50
2022-12-09T11:23:02.749Z,14.10
2022-12-09T11:25:31.206Z,11.97
2022-12-09T11:27:59.806Z,12.47
2022-12-09T11:30:30.961Z,11.97
2022-12-09T11:33:03.638Z,13.10
2022-12-09T11:35:40.011Z,10.43
2022-12-09T11:38:16.511Z,12.00
2022-12-09T11:40:43.699Z,12.70
2022-12-09T11:43:11.103Z,12.23
2022-12-09T11:45:41.074Z,13.37
2022-12-09T11:48:27.637Z,12.40
2022-12-09T11:51:00.611Z,12.40
2022-12-09T11:53:28.707Z,11.00
2022-12-09T11:55:59.073Z,11.30
2022-12-09T11:58:28.134Z,12.10
2022-12-09T12:01:00.356Z,11.33
2022-12-09T12:03:32.091Z,12.57
2022-12-09T12:06:01.174Z,12.83
2022-12-09T12:08:30.983Z,13.00
2022-12-09T12:11:01.222Z,12.37
2022-12-09T12:13:29.089Z,13.37
2022-12-09T12:16:01.025Z,14.20
2022-12-09T12:18:30.109Z,11.43
2022-12-09T12:21:04.900Z,12.17
2022-12-09T12:23:42.759Z,12.07
2022-12-09T12:26:14.538Z,10.27
2022-12-09T12:29:02.523Z,12.57
2022-12-09T12:31:40.586Z,12.70
2022-12-09T12:34:28.470Z,13.43
2022-12-09T12:37:00.283Z,12.03
2022-12-09T12:39:34.604Z,10.93
2022-12-09T12:42:04.992Z,11.40
2022-12-09T12:44:39.001Z,11.13
2022-12-09T12:47:12.312Z,11.63
2022-12-09T12:49:47.405Z,12.70
2022-12-09T12:52:47.495Z,13.57
2022-12-09T12:55:17.215Z,12.70
2022-12-09T12:57:47.855Z,11.97
2022-12-09T13:00:17.410Z,13.60
2022-12-09T13:02:46.709Z,12.67
2022-12-09T13:05:16.278Z,13.40
2022-12-09T13:07:47.147Z,12.20
2022-12-09T13:10:18.389Z,12.60
2022-12-09T13:12:46.577Z,12.13
2022-12-09T13:15:15.327Z,13.33
2022-12-09T13:17:42.876Z,10.80
2022-12-09T13:20:15.763Z,10.97
2022-12-09T13:22:46.438Z,12.33
2022-12-09T13:25:17.407Z,12.80
2022-12-09T13:27:46.783Z,15.63
2022-12-09T13:30:16.400Z,14.30
2022-12-09T13:33:01.397Z,14.87
2022-12-09T13:35:33.215Z,16.10
2022-12-09T13:38:00.724Z,15.10
2022-12-09T13:40:29.752Z,14.77
2022-12-09T13:43:04.340Z,14.90
2022-12-09T13:45:36.101Z,17.17
2022-12-09T13:48:26.930Z,14.83
2022-12-09T13:50:56.797Z,16.17
2022-12-09T13:53:25.864Z,16.63
2022-12-09T13:55:54.113Z,15.97
2022-12-09T13:58:33.294Z,17.53
2022-12-09T14:01:04.855Z,16.17
2022-12-09T14:03:33.671Z,15.87
2022-12-09T14:06:04.649Z,16.37
2022-12-09T14:08:33.731Z,15.30
2022-12-09T14:11:20.846Z,15.57
2022-12-09T14:13:47.955Z,13.47
2022-12-09T14:16:17.150Z,13.73
2022-12-09T14:18:44.459Z,12.90
2022-12-09T14:21:30.193Z,13.30
2022-12-09T14:24:16.042Z,12.77
2022-12-09T14:26:45.137Z,14.10
2022-12-09T14:29:12.515Z,15.17
2022-12-09T14:31:43.718Z,14.23
2022-12-09T14:34:17.924Z,14.60
2022-12-09T14:36:54.426Z,13.90
2022-12-09T14:39:25.314Z,14.23
2022-12-09T14:41:55.452Z,14.67
2022-12-09T14:44:27.186Z,15.20
2022-12-09T14:47:12.100Z,18.70
2022-12-09T14:49:48.515Z,16.43
2022-12-09T14:52:19.788Z,15.00
2022-12-09T14:54:48.119Z,17.27
2022-12-09T14:57:20.713Z,17.90
2022-12-09T14:59:49.113Z,15.70
2022-12-09T15:02:20.252Z,13.03
2022-12-09T15:04:48.637Z,16.07
2022-12-09T15:07:16.533Z,18.77
2022-12-09T15:09:52.719Z,14.97
2022-12-09T15:12:21.399Z,15.90
2022-12-09T15:14:50.241Z,15.43
2022-12-09T15:17:22.742Z,15.97
2022-12-09T15:20:12.012Z,15.30
2022-12-09T15:22:37.075Z,15.10
2022-12-09T15:25:05.823Z,15.70
2022-12-09T15:27:32.947Z,14.80
2022-12-09T15:30:00.078Z,16.23
2022-12-09T15:32:28.824Z,15.70
2022-12-09T15:34:56.007Z,16.00
2022-12-09T15:37:26.168Z,15.00
2022-12-09T15:39:56.048Z,14.30
2022-12-09T15:42:25.567Z,15.40
2022-12-09T15:44:54.711Z,15.40
2022-12-09T15:47:24.152Z,15.30
2022-12-09T15:49:53.135Z,15.80
2022-12-09T15:52:21.667Z,15.50
2022-12-09T15:54:49.207Z,15.07
2022-12-09T15:57:18.461Z,16.63
2022-12-09T15:59:55.361Z,18.03
2022-12-09T16:02:24.560Z,14.70
2022-12-09T16:04:51.945Z,17.03
2022-12-09T16:07:20.339Z,16.43
2022-12-09T16:10:00.746Z,16.33
2022-12-09T16:12:29.918Z,17.43
2022-12-09T16:14:58.741Z,17.87
2022-12-09T16:17:26.850Z,16.70
2022-12-09T16:19:54.096Z,17.23
2022-12-09T16:22:23.525Z,16.40
2022-12-09T16:27:43.564Z,17.00
2022-12-09T16:30:14.297Z,17.43
2022-12-09T16:32:41.979Z,18.17
2022-12-09T16:35:24.320Z,18.47
2022-12-09T16:38:13.376Z,19.03
2022-12-09T16:40:57.489Z,20.83
2022-12-09T16:43:24.899Z,18.60
2022-12-09T16:45:54.234Z,18.13
2022-12-09T16:48:22.139Z,19.20
2022-12-09T16:50:51.013Z,18.30
2022-12-09T16:53:18.849Z,17.47
2022-12-09T16:55:50.742Z,17.90
2022-12-09T16:58:17.835Z,18.63
2022-12-09T17:00:45.010Z,17.00
2022-12-09T17:03:16.686Z,18.20
2022-12-09T17:05:47.772Z,18.87
2022-12-09T17:08:15.254Z,17.47
2022-12-09T17:10:42.850Z,18.43
2022-12-09T17:13:12.034Z,21.17
2022-12-09T17:15:40.894Z,18.03
2022-12-09T17:18:08.089Z,18.37
2022-12-09T17:20:36.626Z,18.63
2022-12-09T17:23:04.063Z,19.40
2022-12-09T17:25:31.134Z,19.60
2022-12-09T17:27:58.215Z,19.03
2022-12-09T17:30:25.368Z,17.20
2022-12-09T17:32:52.507Z,18.80
2022-12-09T17:35:19.846Z,18.50
2022-12-09T17:37:48.331Z,18.80
2022-12-09T17:40:15.522Z,19.57
2022-12-09T17:42:42.641Z,19.00
2022-12-09T17:45:10.212Z,19.10
2022-12-09T17:47:37.612Z,20.10
2022-12-09T17:50:04.915Z,19.17
2022-12-09T17:52:32.098Z,18.40
2022-12-09T17:55:01.913Z,20.90
2022-12-09T17:57:28.999Z,19.50
2022-12-09T17:59:56.089Z,18.43
2022-12-09T18:02:23.302Z,17.93
2022-12-09T18:04:50.454Z,17.40
2022-12-09T18:07:17.553Z,18.50
2022-12-09T18:09:46.618Z,20.70
2022-12-09T18:12:18.624Z,18.03
2022-12-09T18:14:45.697Z,20.07
2022-12-09T18:17:12.823Z,18.97
2022-12-09T18:19:40.105Z,19.00
2022-12-09T18:22:07.196Z,21.73
2022-12-09T18:24:34.321Z,21.63
2022-12-09T18:27:01.420Z,19.40
2022-12-09T18:29:29.852Z,18.50
2022-12-09T18:31:57.113Z,20.17
2022-12-09T18:34:24.444Z,19.30
2022-12-09T18:36:51.556Z,19.57
2022-12-09T18:39:18.661Z,20.97
2022-12-09T18:41:45.798Z,20.13
2022-12-09T18:44:13.623Z,20.37
2022-12-09T18:46:44.863Z,18.77
2022-12-09T18:49:13.006Z,20.17
2022-12-09T18:51:40.296Z,19.33
2022-12-09T18:54:07.884Z,19.77
2022-12-09T18:56:35.358Z,21.17
2022-12-09T18:59:07.418Z,20.67
2022-12-09T19:01:36.425Z,21.47
2022-12-09T19:04:05.633Z,18.40
2022-12-09T19:06:33.677Z,20.97
2022-12-09T19:09:01.636Z,23.70
2022-12-09T19:11:31.037Z,20.90
2022-12-09T19:13:58.291Z,20.73
2022-12-09T19:16:26.489Z,22.10
2022-12-09T19:18:53.966Z,22.23
2022-12-09T19:21:23.655Z,22.40
2022-12-09T19:23:50.976Z,23.13
2022-12-09T19:26:19.451Z,23.40
2022-12-09T19:28:47.362Z,22.47
2022-12-09T19:31:15.663Z,23.70
2022-12-09T19:33:42.833Z,22.87
2022-12-09T19:36:10.647Z,21.83
2022-12-09T19:38:39.587Z,21.30
2022-12-09T19:41:07.197Z,24.30
2022-12-09T19:43:34.356Z,23.80
2022-12-09T19:46:05.071Z,20.60
2022-12-09T19:48:33.852Z,24.80
2022-12-09T19:51:02.411Z,23.13
2022-12-09T19:53:29.542Z,25.00
2022-12-09T19:55:59.212Z,25.77
2022-12-09T19:58:26.291Z,27.10
2022-12-09T20:00:53.413Z,25.37
2022-12-09T20:03:20.639Z,25.47
2022-12-09T20:05:48.573Z,23.53
2022-12-09T20:08:15.738Z,26.93
2022-12-09T20:10:43.749Z,28.50
2022-12-09T20:13:12.184Z,26.87
2022-12-09T20:15:39.616Z,26.33
2022-12-09T20:18:06.783Z,25.77
2022-12-09T20:20:33.894Z,28.50
2022-12-09T20:23:01.025Z,26.43
2022-12-09T20:25:28.315Z,25.67
2022-12-09T20:27:55.403Z,27.43
2022-12-09T20:30:23.829Z,28.50
2022-12-09T20:32:50.927Z,27.23
2022-12-09T20:35:18.123Z,27.83
2022-12-09T20:37:45.210Z,27.67
2022-12-09T20:40:12.714Z,27.67
2022-12-09T20:42:39.784Z,25.30
2022-12-09T20:45:07.453Z,27.47
2022-12-09T20:47:35.905Z,27.87
2022-12-09T20:50:03.023Z,27.03
2022-12-09T20:52:30.173Z,26.53
2022-12-09T20:54:57.581Z,27.87
2022-12-09T20:57:24.685Z,28.00
2022-12-09T20:59:51.753Z,28.17
2022-12-09T21:02:18.826Z,27.87
2022-12-09T21:04:47.290Z,28.30
2022-12-09T21:07:14.353Z,25.53
2022-12-09T21:09:41.455Z,30.43
2022-12-09T21:12:08.513Z,29.63
2022-12-09T21:14:35.676Z,30.17
2022-12-09T21:17:02.764Z,25.40
2022-12-09T21:19:29.882Z,25.90
2022-12-09T21:21:58.518Z,26.57
2022-12-09T21:24:25.690Z,29.47
2022-12-09T21:26:53.442Z,27.90
2022-12-09T21:29:20.547Z,26.43
2022-12-09T21:31:47.687Z,28.70
2022-12-09T21:34:14.788Z,25.97
2022-12-09T21:36:42.838Z,27.40
2022-12-09T21:39:12.589Z,28.03
2022-12-09T21:41:39.980Z,26.80
2022-12-09T21:44:07.283Z,28.77
2022-12-09T21:46:35.020Z,25.93
2022-12-09T21:49:04.262Z,25.80
2022-12-09T21:51:31.973Z,27.33
2022-12-09T21:53:59.369Z,28.33
2022-12-09T21:56:28.452Z,25.73
2022-12-09T21:58:56.698Z,28.23
2022-12-09T22:01:25.533Z,29.40
2022-12-09T22:03:52.880Z,26.93
2022-12-09T22:06:20.045Z,27.40
2022-12-09T22:08:47.575Z,28.97
2022-12-09T22:11:15.685Z,28.37
2022-12-09T22:13:44.315Z,28.30
2022-12-09T22:16:12.567Z,27.27
2022-12-09T22:18:39.889Z,30.77
2022-12-09T22:21:25.099Z,27.90
2022-12-09T22:23:53.230Z,28.60
2022-12-09T22:26:21.013Z,26.90
2022-12-09T22:28:49.562Z,30.27
2022-12-09T22:31:17.449Z,29.23
2022-12-09T22:33:45.022Z,30.77
2022-12-09T22:36:12.621Z,28.30
2022-12-09T22:38:40.575Z,29.00
2022-12-09T22:41:08.720Z,27.73
2022-12-09T22:43:38.164Z,29.93
2022-12-09T22:46:08.193Z,29.13
2022-12-09T22:48:35.405Z,26.83
2022-12-09T22:51:03.271Z,28.90
2022-12-09T22:53:30.401Z,30.70
2022-12-09T22:55:57.578Z,30.23
2022-12-09T22:58:24.680Z,30.83
2022-12-09T23:00:51.924Z,26.37
2022-12-09T23:03:20.598Z,28.57
2022-12-09T23:05:47.910Z,31.00
2022-12-09T23:08:15.054Z,28.33
2022-12-09T23:10:42.235Z,29.00
2022-12-09T23:13:09.348Z,26.07
2022-12-09T23:15:36.583Z,28.10
2022-12-09T23:18:03.952Z,29.43
2022-12-09T23:20:32.607Z,26.60
2022-12-09T23:22:59.724Z,28.17
2022-12-09T23:25:26.803Z,28.50
2022-12-09T23:27:53.890Z,28.43
2022-12-09T23:30:20.964Z,29.90
2022-12-09T23:32:48.073Z,29.50
2022-12-09T23:35:15.311Z,29.20
2022-12-09T23:37:43.752Z,32.17
2022-12-09T23:40:11.396Z,30.43
2022-12-09T23:42:38.467Z,31.50
2022-12-09T23:45:06.007Z,30.70
2022-12-09T23:47:33.163Z,35.40
2022-12-09T23:50:00.296Z,30.97
2022-12-09T23:52:27.382Z,33.10
2022-12-09T23:54:58.507Z,32.87
2022-12-09T23:57:30.206Z,33.87
2022-12-09T23:59:57.325Z,32.87
